Time;durP1;ratioP1;P1;durP2;ratioP2;P2;SDS_P1;SDS_P2;PMS_P1;PMS_P2;Temp;Humidity;BMP_temperature;BMP_pressure;BME280_temperature;BME280_humidity;BME280_pressure;Samples;Min_cycle;Max_cycle;Signal;HPM_P1;HPM_P2
2022/06/10 00:01:12;;;;;;;6.17;2.08;;;;;;;20.85;77.26;152895.98;1712259;83;21044;-57
2022/06/10 00:03:40;;;;;;;3.50;2.30;;;;;;;20.86;77.41;152898.59;1712197;83;21036;-57
2022/06/10 00:06:08;;;;;;;6.55;2.10;;;;;;;20.88;77.66;152903.81;1712141;83;21493;-57
2022/06/10 00:08:38;;;;;;;7.83;2.52;;;;;;;20.88;79.94;152902.53;1711979;83;21100;-58
2022/06/10 00:11:07;;;;;;;8.00;2.70;;;;;;;20.68;84.23;152852.83;1712199;83;21423;-58
2022/06/10 00:13:38;;;;;;;6.85;3.00;;;;;;;20.28;85.83;152752.25;1712091;83;21075;-59
2022/06/10 00:16:06;;;;;;;5.92;2.70;;;;;;;19.88;87.88;152650.31;1712265;83;21000;-59
2022/06/10 00:18:33;;;;;;;8.80;2.90;;;;;;;19.47;90.12;152548.47;1712162;83;21460;-58
2022/06/10 00:21:01;;;;;;;7.20;3.60;;;;;;;19.17;92.34;152472.77;1712252;83;21450;-59
2022/06/10 00:23:28;;;;;;;4.83;3.10;;;;;;;18.94;94.29;152413.95;1712288;83;21073;-59
2022/06/10 00:25:55;;;;;;;12.95;3.22;;;;;;;18.78;96.58;152373.50;1712152;83;21501;-59
2022/06/10 00:28:23;;;;;;;5.40;3.05;;;;;;;18.67;98.41;152346.09;1712331;83;21027;-59
2022/06/10 00:30:51;;;;;;;6.55;3.08;;;;;;;18.61;100.00;152331.73;1712259;83;21357;-59
2022/06/10 00:33:18;;;;;;;7.85;3.50;;;;;;;18.58;100.00;152322.63;1712051;83;21537;-59
2022/06/10 00:35:45;;;;;;;8.05;3.70;;;;;;;18.56;100.00;152317.38;1712318;83;21453;-59
2022/06/10 00:38:13;;;;;;;5.42;3.55;;;;;;;18.54;100.00;152313.48;1712201;83;21102;-59
2022/06/10 00:40:51;;;;;;;5.25;2.90;;;;;;;18.57;100.00;152321.31;1712174;83;21303;-59
2022/06/10 00:43:22;;;;;;;5.90;3.50;;;;;;;18.61;100.00;152330.45;1712263;83;21283;-59
2022/06/10 00:46:16;;;;;;;6.85;3.30;;;;;;;18.64;100.00;152336.95;1712111;82;21020;-59
2022/06/10 00:49:03;;;;;;;6.20;3.77;;;;;;;18.68;100.00;152347.38;1712013;83;21526;-59
2022/06/10 00:51:47;;;;;;;5.42;3.27;;;;;;;18.69;100.00;152350.03;1711702;83;21008;-59
2022/06/10 00:54:39;;;;;;;6.75;3.42;;;;;;;18.74;100.00;152363.08;1712518;83;20988;-58
2022/06/10 00:57:15;;;;;;;4.80;3.17;;;;;;;18.80;100.00;152378.72;1712380;83;21141;-60
2022/06/10 00:59:53;;;;;;;7.83;3.05;;;;;;;18.82;100.00;152383.94;1717634;83;21036;-59
2022/06/10 01:02:24;;;;;;;6.80;3.00;;;;;;;18.82;100.00;152383.94;1722269;83;21453;-59
2022/06/10 01:04:54;;;;;;;6.85;3.27;;;;;;;18.84;100.00;152389.16;1722584;83;21047;-59
2022/06/10 01:07:23;;;;;;;6.85;3.33;;;;;;;18.87;100.00;152396.97;1722432;83;21012;-59
2022/06/10 01:09:51;;;;;;;7.42;3.70;;;;;;;18.88;100.00;152399.59;1722318;83;21004;-58
2022/06/10 01:12:31;;;;;;;6.03;3.27;;;;;;;18.89;100.00;152402.19;1722307;83;20936;-59
2022/06/10 01:15:13;;;;;;;7.85;3.25;;;;;;;18.91;100.00;152406.13;1721974;83;21052;-58
2022/06/10 01:17:51;;;;;;;8.33;3.00;;;;;;;18.89;100.00;152402.19;1722296;83;20940;-58
2022/06/10 01:20:44;;;;;;;9.35;3.60;;;;;;;18.87;100.00;152395.69;1721923;83;21039;-59
2022/06/10 01:23:25;;;;;;;8.03;2.80;;;;;;;18.85;100.00;152391.75;1722223;82;21235;-58
2022/06/10 01:26:12;;;;;;;4.70;2.90;;;;;;;18.85;100.00;152390.48;1722225;83;21057;-59
2022/06/10 01:29:26;;;;;;;4.75;2.80;;;;;;;18.79;100.00;152376.11;1722308;83;21598;-58
2022/06/10 01:31:59;;;;;;;7.42;3.20;;;;;;;18.75;100.00;152365.69;1722224;83;21023;-58
2022/06/10 01:34:39;;;;;;;8.80;3.72;;;;;;;18.73;100.00;152360.47;1722253;83;20937;-59
2022/06/10 01:37:18;;;;;;;4.87;2.58;;;;;;;18.65;100.00;152340.89;1702107;83;22123;-58
2022/06/10 01:40:04;;;;;;;3.00;2.67;;;;;;;18.61;100.00;152331.73;1722247;83;21478;-59
2022/06/10 01:42:39;;;;;;;5.67;2.62;;;;;;;18.62;100.00;152333.06;1722340;83;20970;-59
2022/06/10 01:45:17;;;;;;;5.33;2.75;;;;;;;18.59;100.00;152325.23;1721021;83;21354;-58
2022/06/10 01:47:53;;;;;;;4.10;2.70;;;;;;;18.59;100.00;152325.23;1722405;82;21031;-58
2022/06/10 01:50:38;;;;;;;5.35;2.80;;;;;;;18.60;100.00;152329.13;1722245;83;21231;-60
2022/06/10 01:53:14;;;;;;;5.95;2.62;;;;;;;18.58;100.00;152323.91;1721370;83;20960;-58
2022/06/10 01:56:05;;;;;;;5.72;2.70;;;;;;;18.53;100.00;152310.88;1721572;83;21043;-59
2022/06/10 01:58:58;;;;;;;5.40;2.65;;;;;;;18.54;100.00;152313.48;1721989;82;21119;-58
2022/06/10 02:01:41;;;;;;;4.40;2.42;;;;;;;18.58;100.00;152323.91;1722090;83;20983;-58
2022/06/10 02:04:23;;;;;;;5.25;2.98;;;;;;;18.58;100.00;152323.91;1722224;83;21997;-58
2022/06/10 02:06:55;;;;;;;2.77;2.22;;;;;;;18.58;100.00;152323.91;1722087;83;21036;-58
2022/06/10 02:09:27;;;;;;;3.98;2.15;;;;;;;18.59;100.00;152325.23;1722173;83;21083;-58
2022/06/10 02:11:59;;;;;;;3.87;2.55;;;;;;;18.63;99.46;152334.34;1721726;83;21036;-59
2022/06/10 02:14:37;;;;;;;3.83;2.20;;;;;;;18.69;98.36;152351.31;1702888;83;21047;-58
2022/06/10 02:17:06;;;;;;;4.47;2.40;;;;;;;18.82;96.42;152383.94;1702621;83;21297;-59
2022/06/10 02:19:45;;;;;;;3.98;2.40;;;;;;;18.94;95.18;152412.67;1721987;83;21020;-59
2022/06/10 02:22:20;;;;;;;4.60;2.20;;;;;;;18.98;94.53;152423.11;1722207;82;21473;-59
2022/06/10 02:25:00;;;;;;;6.87;2.75;;;;;;;19.06;94.54;152444.02;1722281;82;21012;-58
2022/06/10 02:27:30;;;;;;;5.92;2.98;;;;;;;19.14;94.71;152464.94;1722227;83;20961;-58
2022/06/10 02:30:14;;;;;;;6.12;2.40;;;;;;;19.24;95.24;152488.41;1722468;82;21188;-58
2022/06/10 02:32:42;;;;;;;7.53;2.60;;;;;;;19.32;95.15;152510.61;1722323;83;20940;-57
2022/06/10 02:35:11;;;;;;;4.65;2.95;;;;;;;19.47;94.73;152547.19;1722298;82;20972;-59
2022/06/10 02:37:49;;;;;;;4.47;2.80;;;;;;;19.54;94.64;152565.44;1722233;83;21604;-59
2022/06/10 02:40:29;;;;;;;4.50;2.58;;;;;;;19.59;94.56;152578.48;1722151;83;20955;-65
2022/06/10 02:43:46;;;;;;;5.78;2.50;;;;;;;19.62;94.75;152585.03;1722064;82;21220;-58
2022/06/10 02:46:29;;;;;;;7.50;2.67;;;;;;;19.60;94.49;152579.81;1699476;83;21028;-63
2022/06/10 02:49:09;;;;;;;4.95;2.75;;;;;;;19.56;94.59;152569.33;1722398;83;21006;-58
2022/06/10 02:51:36;;;;;;;4.17;3.02;;;;;;;19.54;94.62;152564.13;1722016;83;21074;-57
2022/06/10 02:54:07;;;;;;;6.75;2.80;;;;;;;19.55;94.62;152566.72;1722256;83;21020;-60
2022/06/10 02:56:35;;;;;;;4.08;2.65;;;;;;;19.56;94.50;152570.66;1722182;83;21239;-63
2022/06/10 03:02:18;;;;;;;5.70;2.70;;;;;;;19.63;94.44;152586.31;1707279;83;21083;-62
2022/06/10 03:05:01;;;;;;;9.28;2.67;;;;;;;19.58;94.62;152574.59;1707212;84;21001;-62
2022/06/10 03:07:55;;;;;;;4.35;2.60;;;;;;;19.57;95.07;152571.98;1707524;83;20924;-63
2022/06/10 03:10:38;;;;;;;10.75;2.75;;;;;;;19.51;95.11;152556.28;1707341;82;21239;-56
2022/06/10 03:13:40;;;;;;;12.73;3.00;;;;;;;19.48;95.17;152549.78;1707057;83;21028;-57
2022/06/10 03:16:51;;;;;;;7.35;2.58;;;;;;;19.47;95.08;152547.19;1707212;83;21044;-62
2022/06/10 03:19:54;;;;;;;6.62;2.42;;;;;;;19.44;95.63;152540.64;1707139;84;21491;-58
2022/06/10 03:22:45;;;;;;;6.58;2.37;;;;;;;19.50;94.66;152553.69;1693371;83;21815;-62
2022/06/10 03:25:26;;;;;;;4.97;2.52;;;;;;;19.57;94.00;152573.27;1707310;84;21244;-63
2022/06/10 03:28:11;;;;;;;5.40;2.75;;;;;;;19.66;92.28;152595.47;1707560;84;20921;-62
2022/06/10 03:30:47;;;;;;;6.25;2.37;;;;;;;19.76;91.29;152620.28;1707388;84;21070;-57
2022/06/10 03:33:31;;;;;;;2.75;2.40;;;;;;;19.81;90.99;152632.06;1699504;84;21030;-57
2022/06/10 03:36:09;;;;;;;4.95;2.87;;;;;;;19.81;90.47;152633.33;1687352;84;21060;-58
2022/06/10 03:38:41;;;;;;;6.37;2.50;;;;;;;19.81;90.73;152632.06;1707357;83;21473;-64
2022/06/10 03:41:08;;;;;;;4.10;2.27;;;;;;;19.84;90.60;152639.87;1707152;83;21115;-65
2022/06/10 03:43:37;;;;;;;3.50;2.17;;;;;;;19.84;90.68;152641.16;1707264;84;20941;-57
2022/06/10 03:46:08;;;;;;;4.58;2.30;;;;;;;19.86;90.88;152646.38;1687551;84;20985;-58
2022/06/10 03:48:38;;;;;;;5.37;2.50;;;;;;;19.88;90.83;152651.59;1707344;84;21035;-64
2022/06/10 03:51:05;;;;;;;7.92;2.27;;;;;;;19.87;91.05;152647.70;1707018;84;21458;-57
2022/06/10 03:53:33;;;;;;;5.30;2.25;;;;;;;19.87;91.46;152647.70;1707218;84;21126;-57
2022/06/10 03:56:00;;;;;;;5.65;2.20;;;;;;;19.88;91.75;152650.31;1707340;82;20988;-57
2022/06/10 03:58:27;;;;;;;3.40;2.10;;;;;;;19.94;91.91;152664.75;1707439;84;21009;-63
2022/06/10 04:00:55;;;;;;;2.45;1.82;;;;;;;19.97;91.27;152673.86;1716777;83;20897;-57
2022/06/10 04:03:22;;;;;;;3.92;1.90;;;;;;;19.97;91.14;152673.86;1721615;83;21662;-62
2022/06/10 04:05:50;;;;;;;5.03;2.10;;;;;;;19.99;91.23;152679.08;1721542;83;21052;-57
2022/06/10 04:08:16;;;;;;;4.33;2.00;;;;;;;20.08;91.28;152700.00;1721638;83;21048;-64
2022/06/10 04:10:43;;;;;;;3.05;1.80;;;;;;;20.15;90.70;152719.59;1721669;83;21016;-63
2022/06/10 04:13:10;;;;;;;5.28;1.98;;;;;;;20.19;90.80;152728.72;1721746;82;20987;-58
2022/06/10 04:15:38;;;;;;;3.52;2.02;;;;;;;20.32;90.79;152762.69;1721801;83;21211;-57
2022/06/10 04:18:06;;;;;;;4.58;1.80;;;;;;;20.46;90.11;152796.67;1721808;83;21498;-57
2022/06/10 04:20:36;;;;;;;5.97;1.90;;;;;;;20.56;89.41;152822.78;1721703;82;21039;-58
2022/06/10 04:23:04;;;;;;;3.58;1.80;;;;;;;20.68;89.21;152851.55;1721493;83;20988;-63
2022/06/10 04:25:32;;;;;;;4.58;1.90;;;;;;;20.85;88.43;152894.70;1721884;83;21000;-57
2022/06/10 04:28:00;;;;;;;6.55;2.87;;;;;;;20.99;87.48;152929.98;1721643;82;21216;-64
2022/06/10 04:30:34;;;;;;;2.17;1.92;;;;;;;21.11;86.73;152961.38;1721743;83;21366;-57
2022/06/10 04:33:01;;;;;;;4.72;2.20;;;;;;;21.22;86.56;152987.48;1721687;82;20976;-63
2022/06/10 04:35:28;;;;;;;4.92;2.33;;;;;;;21.31;85.89;153011.00;1721799;82;20952;-63
2022/06/10 04:37:56;;;;;;;3.33;2.00;;;;;;;21.31;85.29;153012.33;1721845;83;21078;-63
2022/06/10 04:40:25;;;;;;;7.90;2.30;;;;;;;21.27;84.89;153000.55;1721467;82;22094;-63
2022/06/10 04:42:52;;;;;;;3.90;2.08;;;;;;;21.20;85.09;152983.55;1721490;82;21473;-57
2022/06/10 04:45:23;;;;;;;4.37;2.12;;;;;;;21.21;85.56;152984.88;1721718;83;21409;-57
2022/06/10 04:47:54;;;;;;;8.43;2.20;;;;;;;21.21;85.52;152984.88;1721752;83;21039;-58
2022/06/10 04:50:19;;;;;;;9.45;1.98;;;;;;;21.31;86.10;153012.33;1721407;83;21525;-58
2022/06/10 04:52:46;;;;;;;4.42;1.98;;;;;;;21.50;84.59;153058.06;1721664;82;21840;-57
2022/06/10 04:55:13;;;;;;;6.45;2.67;;;;;;;21.64;82.30;153094.69;1721589;83;20992;-57
2022/06/10 04:57:40;;;;;;;7.08;2.33;;;;;;;21.74;81.05;153120.86;1721646;83;21094;-57
2022/06/10 05:00:12;;;;;;;4.15;1.80;;;;;;;21.80;80.70;153133.97;1721501;83;21458;-57
2022/06/10 05:02:40;;;;;;;3.08;1.65;;;;;;;21.84;80.60;153144.42;1721889;82;21451;-58
2022/06/10 05:05:08;;;;;;;3.60;1.95;;;;;;;21.80;80.57;153133.97;1721542;82;21252;-58
2022/06/10 05:07:35;;;;;;;4.40;2.08;;;;;;;21.80;80.18;153135.25;1721689;83;21472;-58
2022/06/10 05:10:06;;;;;;;4.85;1.85;;;;;;;21.75;79.15;153123.47;1721275;83;21544;-58
2022/06/10 05:12:32;;;;;;;4.22;1.85;;;;;;;21.73;78.99;153116.97;1722048;83;20987;-58
2022/06/10 05:14:59;;;;;;;4.60;1.80;;;;;;;21.69;77.61;153106.52;1721260;83;21097;-58
2022/06/10 05:17:28;;;;;;;4.53;1.87;;;;;;;21.65;77.69;153096.02;1721650;83;20987;-58
2022/06/10 05:19:55;;;;;;;6.20;2.10;;;;;;;21.64;77.77;153094.69;1721174;83;21008;-58
2022/06/10 05:22:22;;;;;;;2.65;1.90;;;;;;;21.68;77.94;153103.91;1721445;82;21056;-58
2022/06/10 05:24:49;;;;;;;4.40;1.82;;;;;;;21.73;78.05;153118.25;1721621;83;21050;-57
2022/06/10 05:27:16;;;;;;;3.25;1.92;;;;;;;21.77;78.19;153127.41;1721573;82;21123;-57
2022/06/10 05:29:44;;;;;;;5.42;2.08;;;;;;;21.73;77.80;153118.25;1721590;83;21202;-57
2022/06/10 05:32:10;;;;;;;5.78;1.80;;;;;;;21.73;78.03;153118.25;1721479;82;21066;-57
2022/06/10 05:34:48;;;;;;;4.85;1.90;;;;;;;21.71;78.17;153111.73;1721690;82;21007;-58
2022/06/10 05:37:21;;;;;;;4.15;1.80;;;;;;;21.74;78.50;153120.86;1721588;82;20900;-58
2022/06/10 05:39:48;;;;;;;2.72;1.82;;;;;;;21.84;77.68;153144.42;1721549;82;21233;-59
2022/06/10 05:42:15;;;;;;;4.72;1.80;;;;;;;21.86;76.93;153149.66;1721405;83;21292;-59
2022/06/10 05:44:45;;;;;;;2.92;2.05;;;;;;;21.88;76.68;153154.88;1721574;82;21424;-58
2022/06/10 05:47:15;;;;;;;4.10;1.72;;;;;;;21.94;76.15;153170.55;1721547;83;21107;-59
2022/06/10 05:49:44;;;;;;;4.17;2.00;;;;;;;21.96;75.63;153175.78;1721630;83;20999;-61
2022/06/10 05:52:12;;;;;;;3.83;2.20;;;;;;;21.95;76.04;153173.16;1721242;83;21078;-58
2022/06/10 05:54:43;;;;;;;4.90;1.92;;;;;;;21.94;75.79;153170.55;1721678;83;21510;-58
2022/06/10 05:57:10;;;;;;;4.92;1.90;;;;;;;21.92;75.19;153165.31;1721497;83;21103;-58
2022/06/10 05:59:37;;;;;;;2.00;1.77;;;;;;;21.87;75.46;153152.25;1721483;82;21127;-58
2022/06/10 06:02:09;;;;;;;2.50;1.80;;;;;;;21.86;75.52;153150.94;1721362;82;20981;-58
2022/06/10 06:04:36;;;;;;;2.52;1.90;;;;;;;21.87;75.47;153152.25;1721494;82;20964;-58
2022/06/10 06:07:04;;;;;;;4.08;1.80;;;;;;;21.83;75.50;153141.81;1721432;82;21240;-58
2022/06/10 06:09:31;;;;;;;4.20;1.82;;;;;;;21.86;75.80;153149.66;1721481;83;21050;-58
2022/06/10 06:11:58;;;;;;;3.27;1.85;;;;;;;21.93;75.90;153167.94;1721382;82;21066;-58
2022/06/10 06:14:26;;;;;;;2.67;1.85;;;;;;;21.99;76.09;153182.33;1721505;83;21055;-58
2022/06/10 06:16:57;;;;;;;3.80;1.80;;;;;;;22.01;76.37;153187.56;1721781;82;21028;-57
2022/06/10 06:19:25;;;;;;;2.80;1.80;;;;;;;22.09;76.08;153208.47;1714160;83;21124;-62
2022/06/10 06:21:53;;;;;;;2.60;1.80;;;;;;;22.13;75.40;153218.97;1679780;85;21072;-63
2022/06/10 06:24:20;;;;;;;3.35;1.80;;;;;;;22.20;75.02;153235.92;1686104;83;20998;-63
2022/06/10 06:26:47;;;;;;;3.72;1.70;;;;;;;22.25;75.13;153249.03;1685408;84;21043;-63
2022/06/10 06:29:15;;;;;;;2.30;2.02;;;;;;;22.43;74.85;153294.80;1685675;85;21032;-61
2022/06/10 06:31:42;;;;;;;2.92;1.92;;;;;;;22.63;73.75;153343.23;1684660;84;21236;-62
2022/06/10 06:34:09;;;;;;;2.65;1.85;;;;;;;22.72;72.82;153366.81;1721320;83;21513;-61
2022/06/10 06:36:44;;;;;;;3.33;1.80;;;;;;;22.80;72.71;153387.72;1721686;82;21082;-61
2022/06/10 06:39:14;;;;;;;3.27;1.90;;;;;;;22.96;72.45;153426.98;1721586;83;20996;-57
2022/06/10 06:41:41;;;;;;;2.98;1.90;;;;;;;23.11;72.01;153466.25;1721553;81;21512;-57
2022/06/10 06:44:08;;;;;;;5.50;1.87;;;;;;;23.29;71.38;153510.77;1720120;82;22158;-62
2022/06/10 06:46:37;;;;;;;5.60;1.87;;;;;;;23.52;70.35;153568.34;1721573;83;21079;-62
2022/06/10 06:49:08;;;;;;;2.77;1.95;;;;;;;23.77;69.42;153632.50;1698648;83;21102;-62
2022/06/10 06:51:35;;;;;;;2.95;1.85;;;;;;;23.97;68.50;153683.53;1721915;83;21063;-62
2022/06/10 06:54:02;;;;;;;3.10;1.87;;;;;;;24.13;67.38;153722.88;1721767;83;21054;-62
2022/06/10 06:56:29;;;;;;;3.72;1.72;;;;;;;24.23;66.96;153749.09;1722009;83;22666;-63
2022/06/10 06:58:57;;;;;;;4.42;1.90;;;;;;;24.35;65.57;153777.88;1682554;83;21030;-62
2022/06/10 07:01:24;;;;;;;3.42;1.80;;;;;;;24.45;64.84;153804.09;1680368;85;21035;-62
2022/06/10 07:03:51;;;;;;;5.28;2.25;;;;;;;24.52;63.80;153822.41;1672887;85;21109;-62
2022/06/10 07:06:18;;;;;;;2.98;1.92;;;;;;;24.50;63.66;153817.17;1673110;85;21475;-63
2022/06/10 07:08:45;;;;;;;2.72;2.05;;;;;;;24.48;63.62;153811.94;1673297;85;21247;-62
2022/06/10 07:11:13;;;;;;;4.37;2.10;;;;;;;24.52;63.54;153822.41;1673210;85;21287;-62
2022/06/10 07:13:40;;;;;;;5.30;2.33;;;;;;;24.53;63.83;153825.03;1674575;85;21052;-62
2022/06/10 07:16:09;;;;;;;3.70;2.10;;;;;;;24.56;63.06;153831.59;1677409;85;21605;-62
2022/06/10 07:18:37;;;;;;;3.08;2.00;;;;;;;24.68;63.59;153861.72;1677442;85;21115;-62
2022/06/10 07:21:04;;;;;;;3.70;2.10;;;;;;;24.83;62.97;153901.03;1674011;85;21221;-63
2022/06/10 07:23:32;;;;;;;4.12;2.17;;;;;;;25.05;62.45;153954.75;1672960;85;21075;-63
2022/06/10 07:25:59;;;;;;;4.67;2.20;;;;;;;25.27;60.95;154012.41;1673274;85;21081;-63
2022/06/10 07:28:26;;;;;;;5.85;2.20;;;;;;;25.38;59.57;154038.58;1673199;85;21112;-63
2022/06/10 07:30:54;;;;;;;3.25;2.10;;;;;;;25.37;59.24;154037.30;1673017;85;21066;-63
2022/06/10 07:33:21;;;;;;;5.72;2.30;;;;;;;25.39;57.64;154042.53;1685493;84;21456;-64
2022/06/10 07:35:49;;;;;;;8.18;2.50;;;;;;;25.41;56.67;154047.77;1685855;83;21006;-62
2022/06/10 07:38:16;;;;;;;3.60;2.10;;;;;;;25.37;54.06;154037.30;1673390;85;21042;-62
2022/06/10 07:43:30;;;;;;;3.95;1.90;;;;;;;25.29;51.88;154016.30;1676532;85;21081;-62
2022/06/10 07:45:58;;;;;;;4.28;2.20;;;;;;;25.24;51.14;154004.55;1677381;85;21259;-63
2022/06/10 07:48:25;;;;;;;2.40;2.08;;;;;;;25.17;51.44;153987.50;1658119;85;21017;-63
2022/06/10 07:50:52;;;;;;;3.27;2.27;;;;;;;25.15;50.78;153982.27;1673356;85;21094;-63
2022/06/10 07:53:20;;;;;;;3.77;2.50;;;;;;;25.05;50.94;153956.03;1672934;85;21086;-63
2022/06/10 07:55:47;;;;;;;3.15;2.00;;;;;;;24.93;51.55;153924.63;1673063;85;21063;-62
2022/06/10 07:58:16;;;;;;;3.40;2.10;;;;;;;24.84;51.87;153903.64;1673000;85;21210;-63
2022/06/10 08:00:43;;;;;;;4.20;1.90;;;;;;;24.76;51.96;153882.70;1674057;85;21028;-63
2022/06/10 08:03:10;;;;;;;3.27;2.08;;;;;;;24.72;52.89;153872.19;1681670;85;21163;-63
2022/06/10 08:05:38;;;;;;;2.25;2.05;;;;;;;24.78;53.55;153887.94;1681768;84;20973;-62
2022/06/10 08:08:06;;;;;;;3.50;2.00;;;;;;;24.87;53.74;153910.20;1681851;85;21004;-62
2022/06/10 08:10:37;;;;;;;6.80;2.15;;;;;;;24.89;53.65;153916.78;1681816;85;20937;-62
2022/06/10 08:13:05;;;;;;;4.58;1.90;;;;;;;24.92;53.79;153922.02;1681731;85;21040;-62
2022/06/10 08:15:34;;;;;;;3.12;2.15;;;;;;;24.97;53.69;153935.09;1680614;85;21386;-63
2022/06/10 08:18:03;;;;;;;3.98;1.92;;;;;;;24.92;54.17;153922.02;1685147;83;21043;-62
2022/06/10 08:23:24;;;;;;;3.27;2.20;;;;;;;24.91;55.35;153920.67;1678244;84;21140;-63
2022/06/10 08:25:52;;;;;;;4.22;2.10;;;;;;;25.04;55.50;153953.42;1689068;83;21483;-64
2022/06/10 08:28:20;;;;;;;4.03;2.12;;;;;;;24.96;55.61;153932.48;1668569;85;21033;-63
2022/06/10 08:30:47;;;;;;;7.47;3.00;;;;;;;24.88;56.50;153914.16;1668502;85;21025;-63
2022/06/10 08:33:14;;;;;;;4.12;2.17;;;;;;;24.82;57.10;153898.41;1668596;85;21482;-63
2022/06/10 08:35:41;;;;;;;5.20;2.10;;;;;;;24.71;57.54;153869.56;1668626;85;21133;-64
2022/06/10 08:38:11;;;;;;;5.75;2.25;;;;;;;24.61;57.40;153845.95;1671723;84;20931;-64
2022/06/10 08:41:03;;;;;;;6.30;2.25;;;;;;;24.64;58.05;153851.19;1664014;84;21512;-63
2022/06/10 08:44:05;;;;;;;6.70;2.30;;;;;;;24.70;58.43;153866.95;1707492;84;20927;-63
2022/06/10 08:47:12;;;;;;;3.33;2.08;;;;;;;24.59;58.69;153840.72;1653257;85;21461;-62
2022/06/10 08:50:20;;;;;;;3.50;2.00;;;;;;;24.49;59.41;153814.56;1701792;83;21465;-62
2022/06/10 08:53:08;;;;;;;4.85;2.27;;;;;;;24.54;59.97;153826.36;1706682;83;21027;-62
2022/06/10 08:56:01;;;;;;;4.58;2.27;;;;;;;24.67;60.24;153859.09;1677751;85;21040;-63
2022/06/10 08:58:32;;;;;;;4.90;2.40;;;;;;;24.78;59.82;153886.66;1712286;83;20977;-62
2022/06/10 09:01:09;;;;;;;3.17;2.20;;;;;;;24.72;59.45;153872.19;1709959;83;21389;-62
2022/06/10 09:03:44;;;;;;;4.67;2.10;;;;;;;24.74;59.92;153877.42;1716565;82;21211;-62
2022/06/10 09:06:22;;;;;;;3.22;2.00;;;;;;;24.82;59.84;153897.13;1687709;84;21039;-62
2022/06/10 09:08:51;;;;;;;4.25;2.42;;;;;;;24.81;59.72;153894.50;1687249;83;21251;-62
2022/06/10 09:11:38;;;;;;;5.03;2.00;;;;;;;24.80;59.64;153893.17;1687477;85;21008;-63
2022/06/10 09:14:18;;;;;;;7.55;2.47;;;;;;;24.85;60.02;153906.25;1661788;86;21565;-63
2022/06/10 09:16:53;;;;;;;3.35;2.33;;;;;;;24.79;60.46;153890.56;1681513;84;21037;-62
2022/06/10 09:19:41;;;;;;;3.55;2.47;;;;;;;24.81;60.81;153895.78;1687266;84;21024;-62
2022/06/10 09:22:25;;;;;;;3.17;2.15;;;;;;;24.86;60.57;153908.88;1687434;85;21549;-62
2022/06/10 09:25:17;;;;;;;3.72;2.20;;;;;;;24.82;58.87;153898.41;1687496;84;23725;-62
2022/06/10 09:27:50;;;;;;;6.85;2.95;;;;;;;24.73;58.61;153874.80;1687366;85;21029;-63
2022/06/10 09:30:21;;;;;;;5.80;2.52;;;;;;;24.68;58.59;153863.00;1687595;85;21280;-63
2022/06/10 09:33:38;;;;;;;2.62;2.20;;;;;;;24.57;58.33;153835.48;1688048;84;21007;-62
2022/06/10 09:36:20;;;;;;;3.50;2.30;;;;;;;24.47;58.38;153809.33;1687592;84;21008;-62
2022/06/10 09:38:53;;;;;;;4.55;2.22;;;;;;;24.40;59.18;153790.95;1687585;85;21083;-63
2022/06/10 09:41:45;;;;;;;4.70;2.45;;;;;;;24.24;59.85;153750.38;1687590;84;21122;-62
2022/06/10 09:44:17;;;;;;;5.58;2.72;;;;;;;24.17;60.57;153733.34;1674280;85;21016;-62
2022/06/10 09:47:17;;;;;;;3.40;2.20;;;;;;;23.99;60.84;153688.81;1686905;84;21078;-62
2022/06/10 09:50:04;;;;;;;3.42;2.60;;;;;;;23.97;61.50;153683.53;1687052;85;21067;-63
2022/06/10 09:53:06;;;;;;;4.50;2.25;;;;;;;23.99;60.86;153688.81;1687268;85;21756;-63
2022/06/10 09:55:55;;;;;;;5.35;2.40;;;;;;;23.88;61.16;153661.33;1687309;84;21024;-63
2022/06/10 09:58:49;;;;;;;4.47;2.70;;;;;;;23.90;62.04;153665.22;1686167;85;21325;-63
2022/06/10 10:01:41;;;;;;;4.97;2.30;;;;;;;23.97;62.34;153683.53;1685061;84;21056;-62
2022/06/10 10:04:29;;;;;;;2.87;2.15;;;;;;;24.04;62.45;153700.61;1649667;86;21704;-62
2022/06/10 10:07:19;;;;;;;8.23;2.70;;;;;;;24.10;62.46;153715.03;1649794;86;21593;-62
2022/06/10 10:10:01;;;;;;;4.10;2.40;;;;;;;24.11;62.17;153717.64;1651569;86;21064;-62
2022/06/10 10:12:37;;;;;;;3.98;2.33;;;;;;;24.01;62.28;153694.09;1649862;86;21520;-62
2022/06/10 10:15:38;;;;;;;4.05;2.40;;;;;;;23.91;63.12;153667.84;1634570;86;21038;-63
2022/06/10 10:18:20;;;;;;;4.37;2.52;;;;;;;23.94;63.69;153675.69;1637082;86;21087;-63
2022/06/10 10:21:03;;;;;;;2.40;2.20;;;;;;;23.97;63.60;153683.53;1654114;85;21082;-62
2022/06/10 10:23:41;;;;;;;3.98;2.25;;;;;;;23.99;63.87;153688.81;1652658;85;21031;-63
2022/06/10 10:26:20;;;;;;;7.45;3.12;;;;;;;24.02;63.97;153696.72;1649501;85;21254;-61
2022/06/10 10:28:49;;;;;;;3.50;2.40;;;;;;;23.94;64.49;153675.69;1673403;85;21028;-62
2022/06/10 10:31:24;;;;;;;6.25;2.50;;;;;;;23.88;64.92;153659.98;1673102;85;21381;-62
2022/06/10 10:33:51;;;;;;;3.60;2.52;;;;;;;23.86;65.18;153654.75;1672592;85;21497;-63
2022/06/10 10:36:36;;;;;;;3.05;2.37;;;;;;;23.87;65.43;153657.38;1672659;85;21057;-62
2022/06/10 10:39:16;;;;;;;;;;;;;;;23.89;65.50;153662.61;1638934;86;21538;-63
2022/06/10 10:41:45;;;;;;;3.47;2.50;;;;;;;23.80;65.97;153639.06;1644153;87;20225;-62
2022/06/10 10:44:34;;;;;;;3.62;2.40;;;;;;;23.83;66.02;153646.91;1625784;87;21007;-62
2022/06/10 10:47:13;;;;;;;4.53;2.40;;;;;;;23.86;66.00;153654.75;1642643;87;21046;-62
2022/06/10 10:50:08;;;;;;;3.72;2.47;;;;;;;23.85;66.31;153653.42;1644499;87;21071;-63
2022/06/10 10:52:42;;;;;;;3.50;2.30;;;;;;;23.80;66.91;153639.06;1643276;87;21272;-63
2022/06/10 10:55:20;;;;;;;4.53;2.70;;;;;;;23.81;66.92;153642.97;1644199;87;21071;-63
2022/06/10 10:58:01;;;;;;;6.17;2.47;;;;;;;23.84;66.09;153650.81;1644401;87;20919;-64
2022/06/10 11:00:42;;;;;;;3.92;2.87;;;;;;;23.85;65.28;153652.14;1667822;85;21535;-63
2022/06/10 11:03:29;;;;;;;2.45;2.08;;;;;;;23.83;64.87;153646.91;1696393;83;21061;-63
2022/06/10 11:06:02;;;;;;;5.58;2.47;;;;;;;23.83;64.93;153648.19;1659929;84;21053;-62
2022/06/10 11:08:35;;;;;;;3.42;2.60;;;;;;;23.78;64.73;153635.11;1707141;84;21073;-62
2022/06/10 11:11:17;;;;;;;4.90;2.77;;;;;;;23.73;65.04;153623.31;1705088;84;21026;-63
2022/06/10 11:14:20;;;;;;;4.25;2.55;;;;;;;23.74;64.83;153625.94;1699296;84;21014;-63
2022/06/10 11:17:13;;;;;;;3.52;2.08;;;;;;;23.64;65.01;153599.78;1707261;84;21556;-62
2022/06/10 11:20:13;;;;;;;3.77;2.65;;;;;;;23.64;65.53;153599.78;1678979;83;21485;-63
2022/06/10 11:22:40;;;;;;;4.45;2.55;;;;;;;23.74;65.20;153625.94;1662294;84;20941;-63
2022/06/10 11:25:16;;;;;;;5.70;2.50;;;;;;;23.72;64.98;153619.42;1664364;84;21043;-63
2022/06/10 11:27:58;;;;;;;7.12;2.92;;;;;;;23.70;65.15;153615.47;1661923;85;21126;-63
2022/06/10 11:30:41;;;;;;;9.15;2.90;;;;;;;23.72;64.82;153620.70;1662267;85;21056;-62
2022/06/10 11:33:23;;;;;;;5.03;2.75;;;;;;;23.73;65.01;153623.31;1670571;84;21414;-62
2022/06/10 11:36:16;;;;;;;6.00;2.67;;;;;;;23.69;65.17;153612.86;1691057;84;21024;-62
2022/06/10 11:38:59;;;;;;;3.20;2.20;;;;;;;23.66;65.36;153605.02;1710023;82;20958;-62
2022/06/10 11:41:30;;;;;;;3.52;2.52;;;;;;;23.65;65.45;153602.39;1675850;83;21463;-62
2022/06/10 11:44:14;;;;;;;4.08;2.70;;;;;;;23.64;65.54;153599.78;1713035;83;21126;-62
2022/06/10 11:47:01;;;;;;;4.40;2.50;;;;;;;23.62;66.08;153594.55;1655729;86;21244;-62
2022/06/10 11:49:34;;;;;;;8.30;2.75;;;;;;;23.63;65.66;153597.16;1665692;85;21015;-62
2022/06/10 11:52:12;;;;;;;6.12;2.83;;;;;;;23.60;65.76;153589.31;1684390;85;21571;-63
2022/06/10 11:55:17;;;;;;;5.47;2.42;;;;;;;23.55;66.02;153576.23;1654903;85;21031;-62
2022/06/10 12:01:02;;;;;;;3.08;2.40;;;;;;;23.45;66.62;153551.38;1664387;85;21251;-62
2022/06/10 12:03:58;;;;;;;4.03;2.87;;;;;;;23.42;66.86;153544.81;1655614;86;21130;-61
2022/06/10 12:06:39;;;;;;;3.92;2.75;;;;;;;23.44;67.13;153550.03;1648697;87;21060;-62
2022/06/10 12:09:23;;;;;;;5.00;2.80;;;;;;;23.45;67.24;153552.66;1648789;87;21073;-62
2022/06/10 12:12:01;;;;;;;7.78;2.90;;;;;;;23.40;67.49;153539.58;1649028;87;20918;-62
2022/06/10 12:14:42;;;;;;;4.05;2.87;;;;;;;23.37;68.14;153531.73;1649026;86;21035;-62